Saint Paul, MN (55105)

8:49 PM CDT on August 28, 2014 (GMT -0500)
Copley Manor, Highland Park | Change Station
CLOSE
Current Station
Personal Weather Station
Location: Saint Paul, MN
Elevation: 951 ft
Nearby Weather Stations

Elev 951 ft 44.92 °N, 93.15 °W | Updated 3 seconds ago

Light Drizzle
Light Drizzle
66.7 °F
Feels Like 66.7 °F
N
1.1
Wind Variable Wind from WSW
Gusts 2.7 mph

Today
High -- | Low -- °F
--% Chance of Precip.
Yesterday
High -- | Low -- °F
Precip. -- in
6:30 AM 7:56 PM
Waxing Crescent, 11% visible
Pressure 29.94 in
Visibility 7.0 miles
Clouds Mostly Cloudy 1200 ft
Overcast 2400 ft
Dew Point 66 °F
Humidity 96%
Rainfall 0.00 in
Snow Depth Not available.
UV 0 out of 12
Pollen 6.40 out of 12
Ozone Good
PM2.5 Good
Flu Activity Not available.
METAR KMSP 290053Z 12013G17KT 7SM -DZ BKN012 OVC024 19/18 A2994 RMK AO2 DZB53 SLP137 P0000 T01940178

More Conditions Fewer Conditions

Pressure 29.94 in
Visibility 7.0 miles
Clouds Mostly Cloudy 1200 ft
Overcast 2400 ft
Dew Point 66 °F
Humidity 96%
Rainfall 0.00 in
Snow Depth Not available.
UV 0 out of 12
Pollen 6.40 out of 12
Ozone Good
PM2.5 Good
Flu Activity Not available.
METAR KMSP 290053Z 12013G17KT 7SM -DZ BKN012 OVC024 19/18 A2994 RMK AO2 DZB53 SLP137 P0000 T01940178

More Conditions Fewer Conditions

10-Day Weather Forecast

Almanac

Astronomy

Aug. 28, 2014 Rise Set
Actual Time 6:30 AM CDT 7:56 PM CDT
Civil Twilight 5:59 AM CDT 8:27 PM CDT
Nautical Twilight 5:22 AM CDT 9:04 PM CDT
Astronomical Twilight 4:42 AM CDT 9:43 PM CDT
Moon 9:32 AM CDT (8/28) 9:10 PM CDT (8/28)
Length of Visible Light 14h 27m
Length of Day
13h 26m
Tomorrow will be 2m 59s shorter.
Waxing Crescent, 11% of the Moon is Illuminated
Today
Waxing Crescent
Sep 2
First Quarter
Sep 8
Full
Sep 15
Last Quarter
Sep 24
New

Today's Extremes

State Highs State Lows

Community

WunderPhotos

Upload Photos

1,748,131 photos uploaded!

Nearby

Air Quality

  Air Quality AQ Index Pollutant
Yesterday Good
OZONE
Yesterday Good
PM2.5
Current Good
PM2.5
Current Good
OZONE
Thursday Good
OZONE
Thursday Good
PM2.5
Friday Good
OZONE
Friday Good
PM2.5
Saturday Good
OZONE
Saturday Good
PM2.5
Sunday Moderate
PM2.5
Sunday Good
OZONE
Monday Good
OZONE
Monday Good
PM2.5
Tuesday Good
OZONE
Tuesday Good
PM2.5

Snow Depth

Station Depth Elevation
No new snow has been reported.

Earthquake Activity

City Distance Mag. Time & Date
No recent earthquake activity has been reported nearby.
Minimum magnitude displayed is 2.5.

Coastal Water Temperatures

Place Temperature
No Stations Reporting

Nearby Weather Stations